Time;durP1;ratioP1;P1;durP2;ratioP2;P2;SDS_P1;SDS_P2;PMS_P1;PMS_P2;Temp;Humidity;BMP_temperature;BMP_pressure;BME280_temperature;BME280_humidity;BME280_pressure;Samples;Min_cycle;Max_cycle;Signal;HPM_P1;HPM_P2
2023/04/05 00:02:09;;;;;;;;;;;;;;;4.90;53.17;94647.63;4991551;28;20313;-63
2023/04/05 00:04:37;;;;;;;;;;;;;;;4.79;53.34;94638.03;4991835;28;20358;-62
2023/04/05 00:07:07;;;;;;;;;;;;;;;5.08;53.18;94642.31;4991348;28;19983;-62
2023/04/05 00:09:33;;;;;;;;;;;;;;;5.04;52.81;94632.59;4992092;28;19962;-63
2023/04/05 00:12:00;;;;;;;;;;;;;;;5.18;52.27;94630.56;4991949;28;19961;-63
2023/04/05 00:14:27;;;;;;;;;;;;;;;4.65;53.66;94636.66;4991884;28;20055;-63
2023/04/05 00:16:54;;;;;;;;;;;;;;;4.69;53.80;94639.63;4975409;28;19981;-62
2023/04/05 00:19:22;;;;;;;;;;;;;;;4.68;54.04;94631.03;4993632;28;20307;-65
2023/04/05 00:21:49;;;;;;;;;;;;;;;4.76;53.34;94633.28;4991919;28;19952;-62
2023/04/05 00:24:15;;;;;;;;;;;;;;;4.63;53.61;94630.94;4991850;28;19948;-63
2023/04/05 00:26:45;;;;;;;;;;;;;;;4.10;55.02;94637.94;4991051;28;20479;-63
2023/04/05 00:29:12;;;;;;;;;;;;;;;4.59;54.52;94637.59;4991646;28;19945;-61
2023/04/05 00:31:38;;;;;;;;;;;;;;;4.69;53.53;94637.81;4990991;28;19951;-63
2023/04/05 00:34:07;;;;;;;;;;;;;;;4.30;54.28;94640.25;4991441;28;19991;-62
2023/04/05 00:36:35;;;;;;;;;;;;;;;4.45;53.90;94644.00;4991661;28;19948;-63
2023/04/05 00:39:01;;;;;;;;;;;;;;;4.48;53.92;94647.94;4990286;28;19948;-63
2023/04/05 00:41:28;;;;;;;;;;;;;;;4.08;54.17;94650.34;4991220;28;19955;-63
2023/04/05 00:43:55;;;;;;;;;;;;;;;4.36;54.65;94647.91;4990055;28;20370;-63
2023/04/05 00:46:22;;;;;;;;;;;;;;;4.64;53.20;94640.28;4991396;28;19951;-63
2023/04/05 00:48:49;;;;;;;;;;;;;;;4.58;53.46;94651.56;4991650;28;19960;-63
2023/04/05 00:51:19;;;;;;;;;;;;;;;4.35;53.64;94646.34;4991222;28;20574;-63
2023/04/05 00:53:46;;;;;;;;;;;;;;;4.20;53.93;94647.78;4991584;28;20803;-63
2023/04/05 00:56:14;;;;;;;;;;;;;;;4.44;53.86;94652.78;4990684;28;20737;-63
2023/04/05 00:58:41;;;;;;;;;;;;;;;4.42;53.61;94657.41;4991351;28;19953;-64
2023/04/05 01:01:15;;;;;;;;;;;;;;;4.27;54.30;94648.47;4989572;28;19982;-62
2023/04/05 01:03:45;;;;;;;;;;;;;;;4.62;53.20;94647.50;4991070;28;19958;-62
2023/04/05 01:06:19;;;;;;;;;;;;;;;4.48;53.55;94646.13;4989861;28;20035;-62
2023/04/05 01:08:51;;;;;;;;;;;;;;;4.18;53.97;94655.75;4991161;28;19956;-62
2023/04/05 01:11:18;;;;;;;;;;;;;;;4.41;53.44;94655.84;4990379;28;20063;-62
2023/04/05 01:13:45;;;;;;;;;;;;;;;4.02;54.42;94653.81;4973258;28;19973;-62
2023/04/05 01:16:13;;;;;;;;;;;;;;;4.30;53.64;94654.00;4972884;28;20002;-62
2023/04/05 01:18:45;;;;;;;;;;;;;;;4.38;53.89;94651.06;4989094;28;20004;-62
2023/04/05 01:21:32;;;;;;;;;;;;;;;4.16;54.20;94655.19;4972977;28;20779;-63
2023/04/05 01:24:19;;;;;;;;;;;;;;;4.87;52.62;94650.66;4990897;28;19961;-62
2023/04/05 01:27:02;;;;;;;;;;;;;;;4.81;51.88;94651.59;4989841;28;19980;-64
2023/04/05 01:29:46;;;;;;;;;;;;;;;4.66;52.37;94653.81;4990783;28;20424;-63
2023/04/05 01:32:19;;;;;;;;;;;;;;;4.77;52.29;94657.44;4990780;28;19955;-62
2023/04/05 01:34:52;;;;;;;;;;;;;;;4.72;52.38;94652.94;4988995;28;20401;-63
2023/04/05 01:37:21;;;;;;;;;;;;;;;4.40;53.30;94664.59;4972387;28;20024;-62
2023/04/05 01:39:49;;;;;;;;;;;;;;;4.62;52.17;94660.47;4972770;28;19952;-62
2023/04/05 01:42:23;;;;;;;;;;;;;;;4.62;52.63;94663.06;4989629;28;20507;-62
2023/04/05 01:44:50;;;;;;;;;;;;;;;4.97;51.85;94656.09;4990210;28;19947;-62
2023/04/05 01:47:17;;;;;;;;;;;;;;;4.70;51.98;94644.59;4972097;28;20438;-62
2023/04/05 01:49:44;;;;;;;;;;;;;;;4.77;52.15;94660.84;4990311;28;20012;-62
2023/04/05 01:52:11;;;;;;;;;;;;;;;4.88;51.89;94657.47;4972348;28;19981;-62
2023/04/05 01:54:37;;;;;;;;;;;;;;;4.80;51.51;94655.19;4990322;28;20008;-61
2023/04/05 01:57:04;;;;;;;;;;;;;;;4.47;52.48;94654.91;4990117;28;19953;-62
2023/04/05 01:59:31;;;;;;;;;;;;;;;5.02;51.58;94664.00;4973313;28;19945;-62
2023/04/05 02:01:58;;;;;;;;;;;;;;;5.18;50.96;94653.94;4988375;28;19978;-63
2023/04/05 02:04:26;;;;;;;;;;;;;;;3.97;52.88;94658.84;4972502;28;19953;-63
2023/04/05 02:06:53;;;;;;;;;;;;;;;4.00;53.16;94658.41;4989858;28;19954;-63
2023/04/05 02:09:19;;;;;;;;;;;;;;;3.90;53.56;94663.34;4990626;28;20331;-62
2023/04/05 02:11:46;;;;;;;;;;;;;;;4.37;52.54;94654.69;4988240;28;19975;-62
2023/04/05 02:14:13;;;;;;;;;;;;;;;4.18;53.35;94676.50;4989884;28;19952;-62
2023/04/05 02:16:40;;;;;;;;;;;;;;;4.48;52.27;94666.91;4989921;28;19956;-62
2023/04/05 02:19:07;;;;;;;;;;;;;;;4.32;52.70;94659.75;4988682;28;19983;-63
2023/04/05 02:21:35;;;;;;;;;;;;;;;4.72;51.77;94668.50;4989537;28;19947;-63
2023/04/05 02:24:02;;;;;;;;;;;;;;;4.57;51.77;94670.75;4990092;28;20315;-63
2023/04/05 02:26:29;;;;;;;;;;;;;;;4.78;51.97;94667.59;4988265;28;19997;-62
2023/04/05 02:28:56;;;;;;;;;;;;;;;4.77;51.62;94666.03;4995544;28;20736;-63
2023/04/05 02:31:23;;;;;;;;;;;;;;;4.93;51.34;94672.34;4989496;28;19980;-63
2023/04/05 02:33:50;;;;;;;;;;;;;;;4.41;52.53;94675.78;4990204;28;19976;-62
2023/04/05 02:36:17;;;;;;;;;;;;;;;4.41;52.94;94666.22;4971887;28;20083;-62
2023/04/05 02:38:44;;;;;;;;;;;;;;;4.26;52.87;94668.41;4989861;28;19956;-63
2023/04/05 02:41:10;;;;;;;;;;;;;;;4.40;52.67;94659.44;4971636;28;19984;-62
2023/04/05 02:43:38;;;;;;;;;;;;;;;4.05;53.21;94671.53;4990259;28;19951;-62
2023/04/05 02:46:04;;;;;;;;;;;;;;;4.30;52.46;94664.38;4989089;28;20010;-62
2023/04/05 02:48:36;;;;;;;;;;;;;;;4.08;53.27;94665.88;4988470;28;19964;-62
2023/04/05 02:51:03;;;;;;;;;;;;;;;4.38;52.65;94661.44;4988045;28;19966;-62
2023/04/05 02:53:30;;;;;;;;;;;;;;;4.62;52.64;94663.06;4972815;28;19973;-62
2023/04/05 02:56:00;;;;;;;;;;;;;;;4.40;52.61;94658.66;4990642;28;19961;-63
2023/04/05 02:58:28;;;;;;;;;;;;;;;4.31;52.73;94665.16;4988136;28;20083;-62
2023/04/05 03:00:55;;;;;;;;;;;;;;;3.92;53.53;94662.09;4987871;28;19984;-63
2023/04/05 03:03:28;;;;;;;;;;;;;;;3.89;53.89;94662.56;4988210;28;20317;-63
2023/04/05 03:05:57;;;;;;;;;;;;;;;4.62;52.36;94663.06;4987768;28;19943;-63
2023/04/05 03:08:27;;;;;;;;;;;;;;;4.58;52.39;94664.53;4989343;28;19956;-62
2023/04/05 03:11:02;;;;;;;;;;;;;;;4.92;51.82;94661.19;4972211;28;19958;-62
2023/04/05 03:13:29;;;;;;;;;;;;;;;5.22;51.22;94652.47;4988850;28;20406;-63
2023/04/05 03:15:56;;;;;;;;;;;;;;;5.23;50.92;94651.44;4988605;28;19993;-62
2023/04/05 03:18:28;;;;;;;;;;;;;;;4.42;52.59;94656.59;4987903;28;20218;-62
2023/04/05 03:21:03;;;;;;;;;;;;;;;4.50;52.80;94659.69;4987604;28;19955;-63
2023/04/05 03:23:33;;;;;;;;;;;;;;;4.28;53.02;94668.19;4971487;28;20032;-63
2023/04/05 03:26:03;;;;;;;;;;;;;;;4.54;52.80;94655.63;4971037;28;19958;-63
2023/04/05 03:28:34;;;;;;;;;;;;;;;4.87;52.05;94655.84;4987828;28;19949;-64
2023/04/05 03:31:04;;;;;;;;;;;;;;;4.51;53.16;94666.44;4973767;28;19999;-63
2023/04/05 03:33:32;;;;;;;;;;;;;;;4.70;52.74;94657.56;4986656;28;20483;-64
2023/04/05 03:35:59;;;;;;;;;;;;;;;4.02;53.76;94662.38;4986269;28;19976;-66
2023/04/05 03:38:31;;;;;;;;;;;;;;;4.26;53.69;94662.44;4990964;28;19949;-64
2023/04/05 03:41:09;;;;;;;;;;;;;;;4.39;53.51;94665.63;4974339;28;19951;-65
2023/04/05 03:43:36;;;;;;;;;;;;;;;4.54;53.18;94660.81;4991319;28;20042;-62
2023/04/05 03:46:04;;;;;;;;;;;;;;;4.65;52.79;94667.81;4974468;28;20478;-63
2023/04/05 03:48:31;;;;;;;;;;;;;;;4.73;52.79;94675.28;4992787;28;20365;-64
2023/04/05 03:50:57;;;;;;;;;;;;;;;4.43;53.13;94669.38;4991833;28;20377;-64
2023/04/05 03:53:25;;;;;;;;;;;;;;;4.71;52.96;94666.91;4992447;28;20359;-62
2023/04/05 03:55:54;;;;;;;;;;;;;;;4.59;53.07;94673.91;4990963;28;19953;-63
2023/04/05 03:58:42;;;;;;;;;;;;;;;4.93;52.59;94678.31;4992373;28;20053;-63
2023/04/05 04:01:11;;;;;;;;;;;;;;;4.68;52.94;94672.56;4974811;28;20360;-64
2023/04/05 04:03:38;;;;;;;;;;;;;;;4.45;53.25;94682.91;4992042;28;19972;-63
2023/04/05 04:06:05;;;;;;;;;;;;;;;4.27;54.15;94690.72;4973583;28;19982;-63
2023/04/05 04:08:32;;;;;;;;;;;;;;;4.24;54.71;94693.78;4974349;28;19940;-64
2023/04/05 04:10:59;;;;;;;;;;;;;;;4.56;54.81;94692.50;4989913;28;20415;-63
2023/04/05 04:13:33;;;;;;;;;;;;;;;4.71;54.33;94686.88;4974167;28;19956;-63
2023/04/05 04:16:10;;;;;;;;;;;;;;;4.69;54.40;94692.31;4973521;28;19959;-63
2023/04/05 04:18:53;;;;;;;;;;;;;;;4.71;54.62;94685.09;4991648;28;20026;-63
2023/04/05 04:21:23;;;;;;;;;;;;;;;4.60;53.89;94690.28;4991686;28;20050;-63
2023/04/05 04:24:18;;;;;;;;;;;;;;;4.65;54.67;94691.16;4976421;28;20053;-63
2023/04/05 04:27:11;;;;;;;;;;;;;;;4.50;54.63;94695.22;4975257;28;19948;-62
2023/04/05 04:30:02;;;;;;;;;;;;;;;4.49;54.43;94689.22;4991749;28;19957;-62
2023/04/05 04:33:03;;;;;;;;;;;;;;;4.80;54.07;94680.38;4989723;28;20041;-63
2023/04/05 04:35:53;;;;;;;;;;;;;;;4.75;54.13;94688.81;4989979;28;20137;-62
2023/04/05 04:38:43;;;;;;;;;;;;;;;4.72;54.58;94694.47;4991791;28;20272;-62
2023/04/05 04:41:10;;;;;;;;;;;;;;;4.60;54.06;94691.03;4990647;28;19960;-63
2023/04/05 04:43:42;;;;;;;;;;;;;;;4.80;54.03;94701.13;4991527;28;20008;-63
2023/04/05 04:46:41;;;;;;;;;;;;;;;4.73;54.35;94698.63;4980632;28;20030;-64
2023/04/05 04:49:16;;;;;;;;;;;;;;;4.84;54.00;94695.25;4990997;28;20413;-63
2023/04/05 04:51:47;;;;;;;;;;;;;;;4.98;53.51;94691.41;4991076;28;19958;-62
2023/04/05 04:54:19;;;;;;;;;;;;;;;4.74;54.01;94709.81;4973590;28;20144;-63
2023/04/05 04:56:46;;;;;;;;;;;;;;;4.12;54.59;94698.16;4991114;28;19978;-63
2023/04/05 04:59:13;;;;;;;;;;;;;;;4.41;54.05;94692.16;4991637;28;20038;-62
2023/04/05 05:01:43;;;;;;;;;;;;;;;3.88;55.21;94710.22;4990563;28;19982;-63
2023/04/05 05:04:10;;;;;;;;;;;;;;;4.08;54.78;94699.59;4991165;28;20072;-63
2023/04/05 05:06:39;;;;;;;;;;;;;;;4.04;54.74;94701.84;4989054;28;20022;-62
2023/04/05 05:09:05;;;;;;;;;;;;;;;4.41;54.03;94718.09;4991535;28;20326;-63
2023/04/05 05:11:38;;;;;;;;;;;;;;;4.58;53.53;94698.25;4989247;28;19946;-64
2023/04/05 05:14:07;;;;;;;;;;;;;;;4.60;53.52;94704.03;4973590;28;19945;-62
2023/04/05 05:16:34;;;;;;;;;;;;;;;4.38;53.55;94697.75;4990241;28;19949;-62
2023/04/05 05:19:01;;;;;;;;;;;;;;;4.45;53.28;94708.84;4990489;28;20074;-63
2023/04/05 05:21:40;;;;;;;;;;;;;;;4.52;52.85;94706.94;4989272;28;20013;-64
2023/04/05 05:24:08;;;;;;;;;;;;;;;4.41;53.29;94707.72;4991103;28;19998;-64
2023/04/05 05:26:36;;;;;;;;;;;;;;;4.51;52.65;94713.13;4990435;28;20580;-62
2023/04/05 05:29:03;;;;;;;;;;;;;;;4.47;52.71;94714.59;4990900;28;20446;-64
2023/04/05 05:31:33;;;;;;;;;;;;;;;4.56;52.59;94715.84;4972602;28;20323;-63
2023/04/05 05:34:00;;;;;;;;;;;;;;;4.68;52.02;94719.28;4990638;28;19991;-62
2023/04/05 05:36:27;;;;;;;;;;;;;;;4.71;51.70;94718.03;4990375;28;20008;-64
2023/04/05 05:38:54;;;;;;;;;;;;;;;4.80;51.64;94707.09;4991305;28;20316;-62
2023/04/05 05:41:21;;;;;;;;;;;;;;;5.12;51.45;94705.78;4989951;28;19953;-63
2023/04/05 05:43:47;;;;;;;;;;;;;;;5.20;51.54;94711.66;4990026;28;19957;-64
2023/04/05 05:46:14;;;;;;;;;;;;;;;4.73;52.05;94710.81;4990503;28;20549;-62
2023/04/05 05:48:41;;;;;;;;;;;;;;;5.23;51.01;94706.78;4990647;28;19951;-62
2023/04/05 05:51:11;;;;;;;;;;;;;;;5.32;51.08;94707.22;4990175;28;19953;-62
2023/04/05 05:53:38;;;;;;;;;;;;;;;4.77;51.54;94707.56;4975438;28;20335;-63
2023/04/05 05:56:05;;;;;;;;;;;;;;;4.89;51.15;94700.56;5002171;28;20049;-64
2023/04/05 05:58:32;;;;;;;;;;;;;;;5.07;50.92;94697.09;4990358;28;19991;-62
2023/04/05 06:00:58;;;;;;;;;;;;;;;4.96;52.00;94701.25;4990080;28;20303;-62
2023/04/05 06:03:25;;;;;;;;;;;;;;;4.88;51.18;94699.00;4989880;28;19955;-63
2023/04/05 06:05:53;;;;;;;;;;;;;;;5.22;50.37;94701.81;4990306;28;20446;-62
2023/04/05 06:08:21;;;;;;;;;;;;;;;5.38;50.27;94714.13;4989515;28;19964;-63
2023/04/05 06:10:48;;;;;;;;;;;;;;;5.10;49.38;94709.59;4990520;28;19952;-63
2023/04/05 06:13:15;;;;;;;;;;;;;;;5.49;49.84;94724.47;4989202;28;19947;-62
2023/04/05 06:15:42;;;;;;;;;;;;;;;5.66;48.69;94716.78;4990144;28;20368;-63
2023/04/05 06:18:09;;;;;;;;;;;;;;;5.68;48.46;94704.34;4989408;28;19959;-63
2023/04/05 06:20:39;;;;;;;;;;;;;;;5.35;49.24;94711.97;4990034;28;19983;-64
2023/04/05 06:23:06;;;;;;;;;;;;;;;5.53;48.89;94727.44;4989283;28;20409;-64
2023/04/05 06:25:33;;;;;;;;;;;;;;;5.38;49.25;94724.50;4989658;28;20410;-62
2023/04/05 06:28:02;;;;;;;;;;;;;;;5.60;48.17;94725.50;4989756;28;19992;-64
2023/04/05 06:30:29;;;;;;;;;;;;;;;5.51;48.76;94724.28;4973038;28;20048;-62
2023/04/05 06:32:56;;;;;;;;;;;;;;;5.58;48.91;94719.75;4989185;28;20573;-62
2023/04/05 06:35:23;;;;;;;;;;;;;;;5.84;47.96;94727.06;4990171;28;20406;-63
2023/04/05 06:37:51;;;;;;;;;;;;;;;6.62;47.40;94720.22;4989361;28;19953;-64
2023/04/05 06:40:18;;;;;;;;;;;;;;;6.02;47.04;94726.91;4989670;28;20039;-64
2023/04/05 06:42:44;;;;;;;;;;;;;;;5.76;48.06;94737.78;4989179;28;20429;-62
2023/04/05 06:45:17;;;;;;;;;;;;;;;6.00;47.60;94734.16;4988462;28;19966;-65
2023/04/05 06:47:44;;;;;;;;;;;;;;;6.24;47.20;94738.25;4989696;28;19949;-64
2023/04/05 06:50:11;;;;;;;;;;;;;;;6.24;47.04;94725.22;4990491;28;19953;-63
2023/04/05 06:52:38;;;;;;;;;;;;;;;6.32;46.85;94740.47;4989492;28;19954;-64
2023/04/05 06:55:05;;;;;;;;;;;;;;;6.29;46.58;94746.16;4989893;28;19999;-66
2023/04/05 06:57:32;;;;;;;;;;;;;;;6.39;46.53;94754.13;4989591;28;19953;-64
2023/04/05 06:59:58;;;;;;;;;;;;;;;5.95;47.19;94752.25;4989392;28;20363;-63
2023/04/05 07:02:25;;;;;;;;;;;;;;;6.03;47.10;94754.50;4989630;28;19979;-63
2023/04/05 07:04:52;;;;;;;;;;;;;;;6.52;46.86;94751.25;4990574;28;20431;-63
2023/04/05 07:07:19;;;;;;;;;;;;;;;6.48;45.98;94763.16;4993158;28;19952;-62
2023/04/05 07:09:46;;;;;;;;;;;;;;;6.75;45.70;94758.94;4993534;28;20043;-61
2023/04/05 07:12:13;;;;;;;;;;;;;;;6.85;45.95;94756.53;4993357;28;20015;-62
2023/04/05 07:14:40;;;;;;;;;;;;;;;6.57;45.76;94761.75;4993389;28;20017;-62
2023/04/05 07:17:06;;;;;;;;;;;;;;;6.33;46.08;94765.50;4996660;28;20011;-63
2023/04/05 07:19:33;;;;;;;;;;;;;;;6.44;45.19;94762.03;4995175;28;19954;-62
2023/04/05 07:22:00;;;;;;;;;;;;;;;6.47;45.87;94763.38;4995102;28;20039;-63
2023/04/05 07:24:26;;;;;;;;;;;;;;;6.93;45.38;94766.53;4993723;28;19987;-62
2023/04/05 07:26:53;;;;;;;;;;;;;;;6.90;45.06;94772.22;4992732;28;20368;-62
2023/04/05 07:29:20;;;;;;;;;;;;;;;6.69;44.79;94767.72;4993217;28;20442;-65
2023/04/05 07:31:46;;;;;;;;;;;;;;;6.58;45.59;94773.75;4993056;28;20415;-65
2023/04/05 07:34:13;;;;;;;;;;;;;;;6.11;45.84;94772.34;4992964;28;19972;-63
2023/04/05 07:36:40;;;;;;;;;;;;;;;6.69;44.94;94785.94;4992603;28;19958;-62
2023/04/05 07:39:07;;;;;;;;;;;;;;;6.67;45.07;94761.94;4992962;28;19940;-63
2023/04/05 07:41:37;;;;;;;;;;;;;;;6.90;44.62;94784.44;4992350;28;20010;-62
2023/04/05 07:44:03;;;;;;;;;;;;;;;6.81;44.73;94778.84;4992932;28;19960;-64
2023/04/05 07:46:30;;;;;;;;;;;;;;;6.25;44.41;94784.06;4993519;28;20401;-65
2023/04/05 07:48:57;;;;;;;;;;;;;;;6.36;44.50;94790.25;4997506;28;20393;-62
2023/04/05 07:51:24;;;;;;;;;;;;;;;5.73;46.00;94796.22;4992542;28;20047;-62
2023/04/05 07:53:50;;;;;;;;;;;;;;;6.04;45.30;94797.69;4992482;28;19942;-65
2023/04/05 07:56:17;;;;;;;;;;;;;;;5.83;45.34;94798.28;4992371;28;19979;-65
2023/04/05 07:58:44;;;;;;;;;;;;;;;5.99;44.89;94800.97;4992162;28;20554;-64
2023/04/05 08:01:11;;;;;;;;;;;;;;;6.20;44.86;94799.59;4992081;28;20004;-62
2023/04/05 08:03:38;;;;;;;;;;;;;;;5.76;45.28;94808.78;4992549;28;19948;-64
2023/04/05 08:06:10;;;;;;;;;;;;;;;6.05;45.77;94809.69;4992058;28;19952;-62
2023/04/05 08:08:37;;;;;;;;;;;;;;;5.63;46.03;94810.81;4992420;28;19951;-64
2023/04/05 08:11:03;;;;;;;;;;;;;;;5.52;46.26;94814.19;4992278;28;20388;-64
2023/04/05 08:13:32;;;;;;;;;;;;;;;5.71;45.82;94813.09;4992006;28;19999;-63
2023/04/05 08:16:00;;;;;;;;;;;;;;;5.79;46.32;94810.13;4991497;28;20384;-62
2023/04/05 08:18:27;;;;;;;;;;;;;;;5.93;46.21;94811.50;4974586;28;19971;-62
2023/04/05 08:20:55;;;;;;;;;;;;;;;5.90;46.26;94814.56;4992304;28;19948;-63
2023/04/05 08:23:21;;;;;;;;;;;;;;;6.20;45.78;94828.19;4991859;28;20023;-62
2023/04/05 08:25:48;;;;;;;;;;;;;;;5.93;45.53;94822.69;4992274;28;19959;-63
2023/04/05 08:28:15;;;;;;;;;;;;;;;5.88;45.83;94806.97;4992013;28;20630;-67
2023/04/05 08:30:42;;;;;;;;;;;;;;;5.81;45.51;94831.50;4992061;28;19986;-62
2023/04/05 08:33:09;;;;;;;;;;;;;;;6.27;44.99;94818.44;4991425;28;19952;-63
2023/04/05 08:35:36;;;;;;;;;;;;;;;6.48;45.03;94815.22;4991729;28;20061;-63
2023/04/05 08:38:03;;;;;;;;;;;;;;;6.53;45.46;94822.34;4991602;28;20281;-62
2023/04/05 08:40:40;;;;;;;;;;;;;;;6.64;45.13;94830.09;4974115;28;20435;-63
2023/04/05 08:43:26;;;;;;;;;;;;;;;6.98;44.28;94823.16;4991356;28;20032;-62
2023/04/05 08:45:57;;;;;;;;;;;;;;;6.47;45.09;94829.25;4978179;28;19976;-63
2023/04/05 08:48:23;;;;;;;;;;;;;;;6.50;44.94;94831.38;4999796;28;19943;-63
2023/04/05 08:50:51;;;;;;;;;;;;;;;6.73;45.09;94828.69;4991400;28;20383;-63
2023/04/05 08:53:21;;;;;;;;;;;;;;;6.52;44.98;94837.16;4990919;28;20327;-63
2023/04/05 08:55:50;;;;;;;;;;;;;;;6.89;44.87;94833.16;4991746;28;20503;-62
2023/04/05 08:58:19;;;;;;;;;;;;;;;7.05;44.70;94832.41;4991596;28;19948;-63
2023/04/05 09:00:46;;;;;;;;;;;;;;;7.07;45.17;94838.19;4991819;28;19960;-64
2023/04/05 09:03:15;;;;;;;;;;;;;;;6.93;44.81;94849.13;4990951;28;20043;-62
2023/04/05 09:05:44;;;;;;;;;;;;;;;7.15;44.59;94848.19;4991028;28;19956;-62
2023/04/05 09:08:11;;;;;;;;;;;;;;;7.08;44.85;94849.38;4991088;28;19946;-62
2023/04/05 09:10:39;;;;;;;;;;;;;;;6.91;45.56;94857.16;4991047;28;19941;-63
2023/04/05 09:13:07;;;;;;;;;;;;;;;6.86;45.43;94849.25;4992694;28;19995;-61
2023/04/05 09:15:37;;;;;;;;;;;;;;;6.61;45.59;94861.00;4991509;28;20027;-63
2023/04/05 09:18:04;;;;;;;;;;;;;;;6.91;45.02;94856.38;4990246;28;19956;-63
2023/04/05 09:20:45;;;;;;;;;;;;;;;7.09;45.27;94854.38;4973711;28;19968;-61
2023/04/05 09:23:12;;;;;;;;;;;;;;;6.68;45.59;94846.81;4990886;28;19953;-63
2023/04/05 09:25:41;;;;;;;;;;;;;;;7.01;45.56;94846.91;4991085;28;20031;-62
2023/04/05 09:28:08;;;;;;;;;;;;;;;6.92;45.24;94853.53;4989152;28;19959;-62
2023/04/05 09:30:36;;;;;;;;;;;;;;;6.85;44.28;94852.09;4991016;28;19952;-63
2023/04/05 09:33:07;;;;;;;;;;;;;;;7.06;43.71;94838.41;4972794;28;19996;-62
2023/04/05 09:35:35;;;;;;;;;;;;;;;6.88;44.60;94842.00;4990877;28;20408;-62
2023/04/05 09:38:04;;;;;;;;;;;;;;;6.81;43.88;94846.56;4990514;28;19970;-61
2023/04/05 09:40:43;;;;;;;;;;;;;;;6.78;44.50;94841.03;4973204;28;19951;-66
2023/04/05 09:43:12;;;;;;;;;;;;;;;7.17;43.65;94837.56;4973134;28;20017;-62
2023/04/05 09:45:40;;;;;;;;;;;;;;;7.27;43.07;94835.13;4990333;28;19948;-63
2023/04/05 09:48:08;;;;;;;;;;;;;;;7.36;43.45;94835.50;4990420;28;20400;-63
2023/04/05 09:50:35;;;;;;;;;;;;;;;7.91;43.12;94831.13;4991198;28;19952;-61
2023/04/05 09:53:06;;;;;;;;;;;;;;;7.40;42.77;94829.59;4988821;28;20354;-64
2023/04/05 09:55:33;;;;;;;;;;;;;;;7.57;43.30;94829.59;4990530;28;20545;-61
2023/04/05 09:58:00;;;;;;;;;;;;;;;7.45;43.36;94828.88;4989830;28;19993;-65
2023/04/05 10:00:28;;;;;;;;;;;;;;;7.56;42.94;94828.00;4990686;28;20446;-62
2023/04/05 10:02:55;;;;;;;;;;;;;;;8.04;42.14;94825.56;4990266;28;20044;-64
2023/04/05 10:05:27;;;;;;;;;;;;;;;7.83;41.47;94828.91;4990157;28;19966;-63
2023/04/05 10:07:55;;;;;;;;;;;;;;;8.22;41.78;94827.91;4989907;28;19950;-62
2023/04/05 10:10:22;;;;;;;;;;;;;;;7.59;41.45;94830.91;4990770;28;20652;-65
2023/04/05 10:12:49;;;;;;;;;;;;;;;7.57;41.49;94829.59;4990601;28;19944;-61
2023/04/05 10:15:17;;;;;;;;;;;;;;;7.94;41.97;94841.06;4989901;28;20005;-65
2023/04/05 10:17:52;;;;;;;;;;;;;;;7.90;40.78;94842.59;4989662;28;19992;-63
2023/04/05 10:20:20;;;;;;;;;;;;;;;8.24;39.90;94841.53;4990056;28;20345;-62
2023/04/05 10:22:48;;;;;;;;;;;;;;;8.55;39.30;94833.03;4990132;28;20017;-63
2023/04/05 10:25:24;;;;;;;;;;;;;;;8.66;39.59;94839.94;4990369;28;20377;-62
2023/04/05 10:27:58;;;;;;;;;;;;;;;8.53;38.61;94835.09;4989736;28;19955;-62
2023/04/05 10:30:28;;;;;;;;;;;;;;;7.87;40.01;94827.41;4990368;28;19954;-61
2023/04/05 10:33:09;;;;;;;;;;;;;;;8.30;39.16;94840.56;4989946;28;20054;-63
2023/04/05 10:35:48;;;;;;;;;;;;;;;8.41;39.57;94831.81;4990175;28;20033;-65
2023/04/05 10:38:25;;;;;;;;;;;;;;;8.63;38.76;94835.19;4989774;28;20498;-62
2023/04/05 10:41:21;;;;;;;;;;;;;;;9.13;38.58;94829.72;4994335;28;19937;-62
2023/04/05 10:43:50;;;;;;;;;;;;;;;8.74;38.72;94833.50;4981307;28;19955;-63
2023/04/05 10:46:21;;;;;;;;;;;;;;;9.05;38.79;94823.09;4993480;28;19988;-63
2023/04/05 10:48:51;;;;;;;;;;;;;;;8.49;38.78;94838.41;4994113;28;20001;-63
2023/04/05 10:51:17;;;;;;;;;;;;;;;8.37;38.58;94825.50;4993723;28;19999;-64
2023/04/05 10:53:45;;;;;;;;;;;;;;;8.10;39.61;94845.50;4992580;28;20488;-63
2023/04/05 10:56:15;;;;;;;;;;;;;;;8.08;39.61;94837.13;4993122;28;19948;-64
2023/04/05 10:58:43;;;;;;;;;;;;;;;8.16;39.91;94844.50;4993712;28;19964;-63
2023/04/05 11:01:10;;;;;;;;;;;;;;;8.71;38.87;94847.84;4993186;28;20454;-64
2023/04/05 11:03:43;;;;;;;;;;;;;;;8.62;38.47;94832.84;4976025;28;20051;-63
2023/04/05 11:06:16;;;;;;;;;;;;;;;8.54;38.08;94841.13;4992804;28;19943;-63
2023/04/05 11:08:44;;;;;;;;;;;;;;;8.48;38.69;94848.09;4993500;28;19953;-62
2023/04/05 11:11:14;;;;;;;;;;;;;;;9.05;38.96;94854.47;4993086;28;19994;-62
2023/04/05 11:13:48;;;;;;;;;;;;;;;9.18;37.74;94846.22;4993597;28;19965;-63
2023/04/05 11:16:15;;;;;;;;;;;;;;;9.16;36.75;94840.47;4992794;28;20690;-64
2023/04/05 11:18:46;;;;;;;;;;;;;;;9.36;36.95;94845.06;4993254;28;20502;-63
2023/04/05 11:21:23;;;;;;;;;;;;;;;9.17;36.96;94841.25;4993116;28;19959;-65
2023/04/05 11:24:05;;;;;;;;;;;;;;;9.41;36.98;94839.91;4993621;28;19958;-62
2023/04/05 11:26:33;;;;;;;;;;;;;;;10.02;36.59;94838.50;4992641;28;19996;-62
2023/04/05 11:28:59;;;;;;;;;;;;;;;10.55;36.23;94830.41;4993601;28;19957;-61
2023/04/05 11:31:26;;;;;;;;;;;;;;;10.44;35.74;94828.81;4992952;28;20323;-63
2023/04/05 11:33:54;;;;;;;;;;;;;;;9.97;36.10;94846.31;4993641;28;19948;-63
2023/04/05 11:36:31;;;;;;;;;;;;;;;9.52;36.12;94859.88;4992673;28;20447;-63
2023/04/05 11:39:16;;;;;;;;;;;;;;;9.14;37.18;94855.59;4993523;28;20051;-64
2023/04/05 11:41:57;;;;;;;;;;;;;;;9.59;36.86;94854.44;4992339;28;20341;-64
2023/04/05 11:44:24;;;;;;;;;;;;;;;8.92;36.87;94848.84;4975414;28;20344;-62
2023/04/05 11:46:54;;;;;;;;;;;;;;;8.88;36.48;94848.56;4992234;28;19956;-64
2023/04/05 11:49:25;;;;;;;;;;;;;;;9.71;36.32;94850.59;4991597;28;20033;-65
2023/04/05 11:51:52;;;;;;;;;;;;;;;9.93;35.97;94845.25;4991285;28;20012;-64
2023/04/05 11:54:28;;;;;;;;;;;;;;;9.40;36.26;94845.41;4992737;28;19952;-64
2023/04/05 11:56:55;;;;;;;;;;;;;;;9.84;36.04;94846.75;4991978;28;19947;-64
2023/04/05 11:59:29;;;;;;;;;;;;;;;8.82;36.50;94852.13;4994238;28;20318;-62
2023/04/05 12:02:00;;;;;;;;;;;;;;;8.45;37.41;94848.56;4993242;28;19959;-64
2023/04/05 12:04:26;;;;;;;;;;;;;;;8.43;37.26;94850.63;4992213;28;20014;-63
2023/04/05 12:07:12;;;;;;;;;;;;;;;8.31;38.27;94846.56;4991535;28;20054;-64
2023/04/05 12:09:57;;;;;;;;;;;;;;;8.78;37.97;94856.28;4992644;28;20042;-62
2023/04/05 12:12:24;;;;;;;;;;;;;;;8.83;37.63;94858.94;4991873;28;19950;-64
2023/04/05 12:14:51;;;;;;;;;;;;;;;8.44;38.23;94847.00;4992569;28;20042;-66
2023/04/05 12:17:17;;;;;;;;;;;;;;;8.48;38.17;94848.09;4991474;28;19965;-62
2023/04/05 12:19:44;;;;;;;;;;;;;;;8.58;38.33;94853.44;4992509;28;20004;-64
2023/04/05 12:22:11;;;;;;;;;;;;;;;8.39;39.46;94854.78;4992092;28;20004;-64
2023/04/05 12:24:38;;;;;;;;;;;;;;;8.85;39.63;94854.25;4992321;28;19953;-63
2023/04/05 12:27:05;;;;;;;;;;;;;;;9.41;38.66;94847.75;4991656;28;19954;-63
2023/04/05 12:29:32;;;;;;;;;;;;;;;9.66;38.06;94844.53;4991824;28;20464;-64
2023/04/05 12:31:59;;;;;;;;;;;;;;;10.01;37.26;94847.41;4991593;28;20349;-63
2023/04/05 12:34:26;;;;;;;;;;;;;;;10.75;36.37;94827.88;4991840;28;19960;-62
2023/04/05 12:36:53;;;;;;;;;;;;;;;11.48;36.21;94836.41;4991075;28;20456;-62
2023/04/05 12:39:20;;;;;;;;;;;;;;;10.82;35.84;94833.66;4991779;28;19952;-63
2023/04/05 12:41:57;;;;;;;;;;;;;;;10.88;35.92;94837.88;4991818;28;19953;-63
2023/04/05 12:44:29;;;;;;;;;;;;;;;10.79;35.87;94828.94;4991576;28;19953;-64
2023/04/05 12:47:02;;;;;;;;;;;;;;;10.91;34.98;94824.25;4991036;28;20667;-62
2023/04/05 12:49:35;;;;;;;;;;;;;;;10.78;35.92;94832.63;4991907;28;20005;-63
2023/04/05 12:52:02;;;;;;;;;;;;;;;11.12;35.49;94839.00;4990798;28;19949;-62
2023/04/05 12:54:30;;;;;;;;;;;;;;;11.26;36.74;94822.75;4991879;28;20050;-63
2023/04/05 12:56:57;;;;;;;;;;;;;;;11.14;36.10;94844.78;4990687;28;20011;-62
2023/04/05 12:59:24;;;;;;;;;;;;;;;10.46;36.28;94850.28;4992536;28;20320;-64
2023/04/05 13:01:51;;;;;;;;;;;;;;;10.03;36.84;94840.88;4991122;28;19947;-63
2023/04/05 13:04:18;;;;;;;;;;;;;;;9.57;37.03;94853.88;4991246;28;19950;-62
2023/04/05 13:06:46;;;;;;;;;;;;;;;9.08;37.48;94858.41;4990312;28;20010;-63
2023/04/05 13:09:13;;;;;;;;;;;;;;;8.78;37.60;94855.47;4991679;28;19958;-63